sensor_id;sensor_type;location;lat;lon;timestamp;P1;durP1;ratioP1;P2;durP2;ratioP2
30149;SDS011;16962;48.646;9.026;2024-03-08T00:02:09;95.20;;;46.63;;
30149;SDS011;16962;48.646;9.026;2024-03-08T00:04:57;96.25;;;44.63;;
30149;SDS011;16962;48.646;9.026;2024-03-08T00:07:45;97.15;;;46.60;;
30149;SDS011;16962;48.646;9.026;2024-03-08T00:10:34;100.65;;;46.80;;
30149;SDS011;16962;48.646;9.026;2024-03-08T00:13:21;95.53;;;45.75;;
30149;SDS011;16962;48.646;9.026;2024-03-08T00:16:08;95.80;;;45.20;;
30149;SDS011;16962;48.646;9.026;2024-03-08T00:18:57;97.88;;;46.70;;
30149;SDS011;16962;48.646;9.026;2024-03-08T00:21:46;97.72;;;46.30;;
30149;SDS011;16962;48.646;9.026;2024-03-08T00:24:33;98.88;;;46.80;;
30149;SDS011;16962;48.646;9.026;2024-03-08T00:27:21;95.82;;;45.53;;
30149;SDS011;16962;48.646;9.026;2024-03-08T00:30:10;97.65;;;44.38;;
30149;SDS011;16962;48.646;9.026;2024-03-08T00:33:00;98.32;;;46.17;;
30149;SDS011;16962;48.646;9.026;2024-03-08T00:35:48;95.63;;;45.67;;
30149;SDS011;16962;48.646;9.026;2024-03-08T00:38:36;97.47;;;44.30;;
30149;SDS011;16962;48.646;9.026;2024-03-08T00:41:26;92.53;;;44.45;;
30149;SDS011;16962;48.646;9.026;2024-03-08T00:44:14;93.72;;;44.40;;
30149;SDS011;16962;48.646;9.026;2024-03-08T00:47:01;96.68;;;44.13;;
30149;SDS011;16962;48.646;9.026;2024-03-08T00:49:50;103.80;;;47.28;;
30149;SDS011;16962;48.646;9.026;2024-03-08T00:52:38;101.13;;;45.33;;
30149;SDS011;16962;48.646;9.026;2024-03-08T00:55:26;105.40;;;46.58;;
30149;SDS011;16962;48.646;9.026;2024-03-08T00:58:16;103.75;;;47.13;;
30149;SDS011;16962;48.646;9.026;2024-03-08T01:01:04;97.80;;;47.75;;
30149;SDS011;16962;48.646;9.026;2024-03-08T01:03:52;106.38;;;49.28;;
30149;SDS011;16962;48.646;9.026;2024-03-08T01:06:39;103.68;;;48.42;;
30149;SDS011;16962;48.646;9.026;2024-03-08T01:09:27;107.97;;;47.28;;
30149;SDS011;16962;48.646;9.026;2024-03-08T01:12:14;111.05;;;49.20;;
30149;SDS011;16962;48.646;9.026;2024-03-08T01:15:04;113.85;;;48.08;;
30149;SDS011;16962;48.646;9.026;2024-03-08T01:17:52;116.63;;;48.88;;
30149;SDS011;16962;48.646;9.026;2024-03-08T01:20:41;112.55;;;48.90;;
30149;SDS011;16962;48.646;9.026;2024-03-08T01:23:28;118.50;;;49.75;;
30149;SDS011;16962;48.646;9.026;2024-03-08T01:26:16;110.93;;;48.90;;
30149;SDS011;16962;48.646;9.026;2024-03-08T01:29:04;117.50;;;50.63;;
30149;SDS011;16962;48.646;9.026;2024-03-08T01:31:52;111.45;;;50.33;;
30149;SDS011;16962;48.646;9.026;2024-03-08T01:34:40;118.90;;;49.85;;
30149;SDS011;16962;48.646;9.026;2024-03-08T01:37:29;113.78;;;50.63;;
30149;SDS011;16962;48.646;9.026;2024-03-08T01:40:16;113.60;;;50.00;;
30149;SDS011;16962;48.646;9.026;2024-03-08T01:46:23;107.85;;;48.05;;
30149;SDS011;16962;48.646;9.026;2024-03-08T01:49:15;115.50;;;49.20;;
30149;SDS011;16962;48.646;9.026;2024-03-08T01:52:05;116.80;;;49.53;;
30149;SDS011;16962;48.646;9.026;2024-03-08T01:54:53;115.15;;;47.70;;
30149;SDS011;16962;48.646;9.026;2024-03-08T01:57:42;114.35;;;48.88;;
30149;SDS011;16962;48.646;9.026;2024-03-08T02:00:30;115.43;;;47.25;;
30149;SDS011;16962;48.646;9.026;2024-03-08T02:03:20;118.72;;;47.85;;
30149;SDS011;16962;48.646;9.026;2024-03-08T02:06:11;115.20;;;49.40;;
30149;SDS011;16962;48.646;9.026;2024-03-08T02:09:01;112.05;;;47.83;;
30149;SDS011;16962;48.646;9.026;2024-03-08T02:11:53;115.28;;;48.60;;
30149;SDS011;16962;48.646;9.026;2024-03-08T02:14:42;118.22;;;49.30;;
30149;SDS011;16962;48.646;9.026;2024-03-08T02:17:30;112.53;;;49.25;;
30149;SDS011;16962;48.646;9.026;2024-03-08T02:20:18;111.03;;;47.85;;
30149;SDS011;16962;48.646;9.026;2024-03-08T02:23:08;106.88;;;48.20;;
30149;SDS011;16962;48.646;9.026;2024-03-08T02:25:57;113.90;;;47.78;;
30149;SDS011;16962;48.646;9.026;2024-03-08T02:28:45;119.97;;;49.53;;
30149;SDS011;16962;48.646;9.026;2024-03-08T02:31:33;120.03;;;47.95;;
30149;SDS011;16962;48.646;9.026;2024-03-08T02:34:22;121.80;;;49.75;;
30149;SDS011;16962;48.646;9.026;2024-03-08T02:37:10;118.43;;;48.80;;
30149;SDS011;16962;48.646;9.026;2024-03-08T02:39:58;122.25;;;48.45;;
30149;SDS011;16962;48.646;9.026;2024-03-08T02:42:47;115.40;;;48.38;;
30149;SDS011;16962;48.646;9.026;2024-03-08T02:45:34;117.68;;;48.70;;
30149;SDS011;16962;48.646;9.026;2024-03-08T02:48:22;110.60;;;47.38;;
30149;SDS011;16962;48.646;9.026;2024-03-08T02:51:11;120.93;;;50.05;;
30149;SDS011;16962;48.646;9.026;2024-03-08T02:53:58;119.88;;;50.22;;
30149;SDS011;16962;48.646;9.026;2024-03-08T02:56:46;115.35;;;49.35;;
30149;SDS011;16962;48.646;9.026;2024-03-08T02:59:34;119.40;;;47.97;;
30149;SDS011;16962;48.646;9.026;2024-03-08T03:02:23;111.45;;;47.75;;
30149;SDS011;16962;48.646;9.026;2024-03-08T03:05:11;123.25;;;48.38;;
30149;SDS011;16962;48.646;9.026;2024-03-08T03:07:58;121.78;;;47.50;;
30149;SDS011;16962;48.646;9.026;2024-03-08T03:10:46;116.18;;;49.00;;
30149;SDS011;16962;48.646;9.026;2024-03-08T03:13:33;116.05;;;48.17;;
30149;SDS011;16962;48.646;9.026;2024-03-08T03:16:20;125.38;;;49.05;;
30149;SDS011;16962;48.646;9.026;2024-03-08T03:19:08;121.25;;;48.38;;
30149;SDS011;16962;48.646;9.026;2024-03-08T03:21:55;126.10;;;48.17;;
30149;SDS011;16962;48.646;9.026;2024-03-08T03:24:44;119.80;;;48.25;;
30149;SDS011;16962;48.646;9.026;2024-03-08T03:27:33;120.05;;;48.67;;
30149;SDS011;16962;48.646;9.026;2024-03-08T03:30:20;107.43;;;46.08;;
30149;SDS011;16962;48.646;9.026;2024-03-08T03:33:08;122.97;;;48.40;;
30149;SDS011;16962;48.646;9.026;2024-03-08T03:35:57;121.95;;;48.22;;
30149;SDS011;16962;48.646;9.026;2024-03-08T03:38:44;132.63;;;51.25;;
30149;SDS011;16962;48.646;9.026;2024-03-08T03:41:33;124.03;;;48.22;;
30149;SDS011;16962;48.646;9.026;2024-03-08T03:44:22;110.50;;;48.30;;
30149;SDS011;16962;48.646;9.026;2024-03-08T03:47:10;119.93;;;47.10;;
30149;SDS011;16962;48.646;9.026;2024-03-08T03:49:57;122.15;;;47.20;;
30149;SDS011;16962;48.646;9.026;2024-03-08T03:52:48;123.47;;;48.45;;
30149;SDS011;16962;48.646;9.026;2024-03-08T03:55:36;120.78;;;48.03;;
30149;SDS011;16962;48.646;9.026;2024-03-08T03:58:27;116.82;;;46.58;;
30149;SDS011;16962;48.646;9.026;2024-03-08T04:01:14;117.68;;;48.08;;
30149;SDS011;16962;48.646;9.026;2024-03-08T04:04:02;116.05;;;47.90;;
30149;SDS011;16962;48.646;9.026;2024-03-08T04:06:50;123.80;;;50.08;;
30149;SDS011;16962;48.646;9.026;2024-03-08T04:09:37;126.97;;;48.00;;
30149;SDS011;16962;48.646;9.026;2024-03-08T04:12:26;125.57;;;50.80;;
30149;SDS011;16962;48.646;9.026;2024-03-08T04:15:15;124.40;;;48.25;;
30149;SDS011;16962;48.646;9.026;2024-03-08T04:18:03;131.05;;;49.50;;
30149;SDS011;16962;48.646;9.026;2024-03-08T04:20:51;124.35;;;48.55;;
30149;SDS011;16962;48.646;9.026;2024-03-08T04:23:38;119.93;;;48.75;;
30149;SDS011;16962;48.646;9.026;2024-03-08T04:26:26;124.80;;;48.10;;
30149;SDS011;16962;48.646;9.026;2024-03-08T04:29:15;118.32;;;47.60;;
30149;SDS011;16962;48.646;9.026;2024-03-08T04:32:04;126.60;;;48.13;;
30149;SDS011;16962;48.646;9.026;2024-03-08T04:34:53;125.05;;;46.80;;
30149;SDS011;16962;48.646;9.026;2024-03-08T04:37:40;125.20;;;48.55;;
30149;SDS011;16962;48.646;9.026;2024-03-08T04:40:28;128.73;;;48.35;;
30149;SDS011;16962;48.646;9.026;2024-03-08T04:43:16;124.57;;;47.45;;
30149;SDS011;16962;48.646;9.026;2024-03-08T04:46:05;118.07;;;47.28;;
30149;SDS011;16962;48.646;9.026;2024-03-08T04:48:52;124.28;;;48.53;;
30149;SDS011;16962;48.646;9.026;2024-03-08T04:51:40;117.63;;;47.58;;
30149;SDS011;16962;48.646;9.026;2024-03-08T04:54:27;124.47;;;45.97;;
30149;SDS011;16962;48.646;9.026;2024-03-08T04:57:15;136.93;;;49.80;;
30149;SDS011;16962;48.646;9.026;2024-03-08T05:00:06;124.80;;;49.10;;
30149;SDS011;16962;48.646;9.026;2024-03-08T05:02:58;118.93;;;48.22;;
30149;SDS011;16962;48.646;9.026;2024-03-08T05:05:47;130.95;;;50.17;;
30149;SDS011;16962;48.646;9.026;2024-03-08T05:08:34;134.25;;;50.03;;
30149;SDS011;16962;48.646;9.026;2024-03-08T05:11:21;138.45;;;49.72;;
30149;SDS011;16962;48.646;9.026;2024-03-08T05:14:09;130.02;;;48.42;;
30149;SDS011;16962;48.646;9.026;2024-03-08T05:16:57;121.18;;;48.25;;
30149;SDS011;16962;48.646;9.026;2024-03-08T05:19:45;131.93;;;50.22;;
30149;SDS011;16962;48.646;9.026;2024-03-08T05:22:32;155.27;;;58.15;;
30149;SDS011;16962;48.646;9.026;2024-03-08T05:25:21;140.25;;;51.35;;
30149;SDS011;16962;48.646;9.026;2024-03-08T05:28:08;141.82;;;52.90;;
30149;SDS011;16962;48.646;9.026;2024-03-08T05:30:56;139.90;;;53.40;;
30149;SDS011;16962;48.646;9.026;2024-03-08T05:33:45;139.00;;;53.35;;
30149;SDS011;16962;48.646;9.026;2024-03-08T05:36:33;136.63;;;50.42;;
30149;SDS011;16962;48.646;9.026;2024-03-08T05:39:20;134.93;;;52.20;;
30149;SDS011;16962;48.646;9.026;2024-03-08T05:42:08;143.05;;;51.38;;
30149;SDS011;16962;48.646;9.026;2024-03-08T05:44:56;128.40;;;50.33;;
30149;SDS011;16962;48.646;9.026;2024-03-08T05:47:44;136.90;;;49.50;;
30149;SDS011;16962;48.646;9.026;2024-03-08T05:50:32;129.88;;;50.13;;
30149;SDS011;16962;48.646;9.026;2024-03-08T05:53:20;130.35;;;49.95;;
30149;SDS011;16962;48.646;9.026;2024-03-08T05:56:08;132.88;;;49.92;;
30149;SDS011;16962;48.646;9.026;2024-03-08T05:58:56;133.02;;;50.60;;
30149;SDS011;16962;48.646;9.026;2024-03-08T06:01:44;126.15;;;49.80;;
30149;SDS011;16962;48.646;9.026;2024-03-08T06:04:33;127.65;;;51.65;;
30149;SDS011;16962;48.646;9.026;2024-03-08T06:07:29;126.57;;;49.42;;
30149;SDS011;16962;48.646;9.026;2024-03-08T06:10:17;133.10;;;51.17;;
30149;SDS011;16962;48.646;9.026;2024-03-08T06:13:05;129.98;;;50.65;;
30149;SDS011;16962;48.646;9.026;2024-03-08T06:15:54;134.73;;;52.47;;
30149;SDS011;16962;48.646;9.026;2024-03-08T06:18:42;141.10;;;52.90;;
30149;SDS011;16962;48.646;9.026;2024-03-08T06:21:31;142.15;;;53.50;;
30149;SDS011;16962;48.646;9.026;2024-03-08T06:24:19;143.85;;;53.53;;
30149;SDS011;16962;48.646;9.026;2024-03-08T06:27:07;155.60;;;54.13;;
30149;SDS011;16962;48.646;9.026;2024-03-08T06:29:56;148.82;;;54.60;;
30149;SDS011;16962;48.646;9.026;2024-03-08T06:32:43;141.02;;;54.28;;
30149;SDS011;16962;48.646;9.026;2024-03-08T06:35:31;145.45;;;56.28;;
30149;SDS011;16962;48.646;9.026;2024-03-08T06:38:20;136.75;;;53.33;;
30149;SDS011;16962;48.646;9.026;2024-03-08T06:41:08;144.63;;;53.88;;
30149;SDS011;16962;48.646;9.026;2024-03-08T06:44:02;140.38;;;54.85;;
30149;SDS011;16962;48.646;9.026;2024-03-08T06:46:50;156.40;;;58.35;;
30149;SDS011;16962;48.646;9.026;2024-03-08T06:49:37;146.07;;;54.28;;
30149;SDS011;16962;48.646;9.026;2024-03-08T06:52:24;142.23;;;55.83;;
30149;SDS011;16962;48.646;9.026;2024-03-08T06:55:13;151.48;;;54.20;;
30149;SDS011;16962;48.646;9.026;2024-03-08T06:58:02;144.07;;;53.25;;
30149;SDS011;16962;48.646;9.026;2024-03-08T07:00:53;150.70;;;54.20;;
30149;SDS011;16962;48.646;9.026;2024-03-08T07:03:45;142.32;;;53.00;;
30149;SDS011;16962;48.646;9.026;2024-03-08T07:06:34;141.98;;;53.13;;
30149;SDS011;16962;48.646;9.026;2024-03-08T07:09:23;142.60;;;54.30;;
30149;SDS011;16962;48.646;9.026;2024-03-08T07:12:11;140.00;;;53.13;;
30149;SDS011;16962;48.646;9.026;2024-03-08T07:15:00;142.85;;;52.63;;
30149;SDS011;16962;48.646;9.026;2024-03-08T07:17:48;142.10;;;54.33;;
30149;SDS011;16962;48.646;9.026;2024-03-08T07:20:39;134.07;;;53.53;;
30149;SDS011;16962;48.646;9.026;2024-03-08T07:23:32;131.60;;;49.78;;
30149;SDS011;16962;48.646;9.026;2024-03-08T07:26:38;134.45;;;49.95;;
30149;SDS011;16962;48.646;9.026;2024-03-08T07:29:27;139.85;;;51.75;;
30149;SDS011;16962;48.646;9.026;2024-03-08T07:32:15;128.45;;;51.50;;
30149;SDS011;16962;48.646;9.026;2024-03-08T07:35:07;130.85;;;51.85;;
30149;SDS011;16962;48.646;9.026;2024-03-08T07:37:57;115.95;;;47.40;;
30149;SDS011;16962;48.646;9.026;2024-03-08T07:40:46;123.45;;;49.10;;
30149;SDS011;16962;48.646;9.026;2024-03-08T07:43:34;125.10;;;51.15;;
30149;SDS011;16962;48.646;9.026;2024-03-08T07:46:22;125.25;;;49.58;;
30149;SDS011;16962;48.646;9.026;2024-03-08T07:49:09;115.30;;;47.40;;
30149;SDS011;16962;48.646;9.026;2024-03-08T07:51:58;123.97;;;52.13;;
30149;SDS011;16962;48.646;9.026;2024-03-08T07:54:47;120.45;;;49.88;;
30149;SDS011;16962;48.646;9.026;2024-03-08T07:57:34;118.22;;;50.28;;
30149;SDS011;16962;48.646;9.026;2024-03-08T08:00:22;108.97;;;49.22;;
30149;SDS011;16962;48.646;9.026;2024-03-08T08:03:11;99.55;;;44.42;;
30149;SDS011;16962;48.646;9.026;2024-03-08T08:06:03;106.40;;;47.88;;
30149;SDS011;16962;48.646;9.026;2024-03-08T08:08:54;99.28;;;44.05;;
30149;SDS011;16962;48.646;9.026;2024-03-08T08:11:44;98.13;;;44.20;;
30149;SDS011;16962;48.646;9.026;2024-03-08T08:14:32;91.43;;;43.75;;
30149;SDS011;16962;48.646;9.026;2024-03-08T08:17:21;83.95;;;41.10;;
30149;SDS011;16962;48.646;9.026;2024-03-08T08:20:09;86.72;;;41.00;;
30149;SDS011;16962;48.646;9.026;2024-03-08T08:22:58;76.82;;;39.63;;
30149;SDS011;16962;48.646;9.026;2024-03-08T08:25:46;68.85;;;37.05;;
30149;SDS011;16962;48.646;9.026;2024-03-08T08:28:39;67.03;;;34.38;;
30149;SDS011;16962;48.646;9.026;2024-03-08T08:31:27;69.85;;;35.80;;
30149;SDS011;16962;48.646;9.026;2024-03-08T08:34:18;65.10;;;33.40;;
30149;SDS011;16962;48.646;9.026;2024-03-08T08:37:06;59.35;;;32.53;;
30149;SDS011;16962;48.646;9.026;2024-03-08T08:39:57;60.47;;;31.30;;
30149;SDS011;16962;48.646;9.026;2024-03-08T08:42:52;58.20;;;31.77;;
30149;SDS011;16962;48.646;9.026;2024-03-08T08:45:39;51.97;;;29.10;;
30149;SDS011;16962;48.646;9.026;2024-03-08T08:48:27;51.35;;;28.73;;
30149;SDS011;16962;48.646;9.026;2024-03-08T08:51:17;49.38;;;28.70;;
30149;SDS011;16962;48.646;9.026;2024-03-08T08:54:06;51.33;;;28.55;;
30149;SDS011;16962;48.646;9.026;2024-03-08T08:57:00;52.67;;;29.02;;
30149;SDS011;16962;48.646;9.026;2024-03-08T08:59:49;46.95;;;26.75;;
30149;SDS011;16962;48.646;9.026;2024-03-08T09:02:37;46.38;;;26.83;;
30149;SDS011;16962;48.646;9.026;2024-03-08T09:05:27;46.63;;;26.02;;
30149;SDS011;16962;48.646;9.026;2024-03-08T09:08:17;48.97;;;27.25;;
30149;SDS011;16962;48.646;9.026;2024-03-08T09:11:05;43.70;;;25.10;;
30149;SDS011;16962;48.646;9.026;2024-03-08T09:13:52;45.92;;;26.58;;
30149;SDS011;16962;48.646;9.026;2024-03-08T09:16:42;42.00;;;25.10;;
30149;SDS011;16962;48.646;9.026;2024-03-08T09:19:30;44.25;;;24.88;;
30149;SDS011;16962;48.646;9.026;2024-03-08T09:22:17;44.50;;;24.42;;
30149;SDS011;16962;48.646;9.026;2024-03-08T09:25:05;45.38;;;25.75;;
30149;SDS011;16962;48.646;9.026;2024-03-08T09:27:54;43.55;;;25.08;;
30149;SDS011;16962;48.646;9.026;2024-03-08T09:30:42;43.63;;;25.50;;
30149;SDS011;16962;48.646;9.026;2024-03-08T09:33:42;47.47;;;25.67;;
30149;SDS011;16962;48.646;9.026;2024-03-08T09:36:30;44.33;;;24.52;;
30149;SDS011;16962;48.646;9.026;2024-03-08T09:39:19;39.47;;;22.90;;
30149;SDS011;16962;48.646;9.026;2024-03-08T09:42:12;39.08;;;23.63;;
30149;SDS011;16962;48.646;9.026;2024-03-08T09:45:08;40.63;;;23.63;;
30149;SDS011;16962;48.646;9.026;2024-03-08T09:48:04;42.92;;;24.63;;
30149;SDS011;16962;48.646;9.026;2024-03-08T09:50:57;43.88;;;24.92;;
30149;SDS011;16962;48.646;9.026;2024-03-08T09:53:46;37.45;;;21.85;;
30149;SDS011;16962;48.646;9.026;2024-03-08T09:56:35;39.17;;;24.38;;
30149;SDS011;16962;48.646;9.026;2024-03-08T09:59:24;38.65;;;21.83;;
30149;SDS011;16962;48.646;9.026;2024-03-08T10:02:15;38.35;;;23.17;;
30149;SDS011;16962;48.646;9.026;2024-03-08T10:05:05;40.08;;;22.20;;
30149;SDS011;16962;48.646;9.026;2024-03-08T10:07:53;40.42;;;22.92;;
30149;SDS011;16962;48.646;9.026;2024-03-08T10:10:41;36.40;;;22.02;;
30149;SDS011;16962;48.646;9.026;2024-03-08T10:13:29;38.30;;;23.15;;
30149;SDS011;16962;48.646;9.026;2024-03-08T10:16:19;36.97;;;22.40;;
30149;SDS011;16962;48.646;9.026;2024-03-08T10:19:08;38.22;;;21.38;;
30149;SDS011;16962;48.646;9.026;2024-03-08T10:21:56;36.88;;;22.40;;
30149;SDS011;16962;48.646;9.026;2024-03-08T10:24:46;34.40;;;20.83;;
30149;SDS011;16962;48.646;9.026;2024-03-08T10:27:36;37.05;;;21.83;;
30149;SDS011;16962;48.646;9.026;2024-03-08T10:30:24;39.70;;;22.52;;
30149;SDS011;16962;48.646;9.026;2024-03-08T10:33:14;37.70;;;22.10;;
30149;SDS011;16962;48.646;9.026;2024-03-08T10:36:01;42.97;;;23.55;;
30149;SDS011;16962;48.646;9.026;2024-03-08T10:38:51;41.13;;;22.52;;
30149;SDS011;16962;48.646;9.026;2024-03-08T10:41:40;48.15;;;26.15;;
30149;SDS011;16962;48.646;9.026;2024-03-08T10:44:40;48.85;;;24.58;;
30149;SDS011;16962;48.646;9.026;2024-03-08T10:47:47;51.03;;;26.42;;
30149;SDS011;16962;48.646;9.026;2024-03-08T10:50:37;38.88;;;23.02;;
30149;SDS011;16962;48.646;9.026;2024-03-08T10:53:29;31.70;;;19.83;;
30149;SDS011;16962;48.646;9.026;2024-03-08T10:56:16;41.35;;;22.73;;
30149;SDS011;16962;48.646;9.026;2024-03-08T10:59:06;34.45;;;20.85;;
30149;SDS011;16962;48.646;9.026;2024-03-08T11:01:56;32.97;;;20.15;;
30149;SDS011;16962;48.646;9.026;2024-03-08T11:04:47;33.55;;;19.75;;
30149;SDS011;16962;48.646;9.026;2024-03-08T11:07:36;32.55;;;18.92;;
30149;SDS011;16962;48.646;9.026;2024-03-08T11:10:30;30.80;;;18.75;;
30149;SDS011;16962;48.646;9.026;2024-03-08T11:13:37;29.10;;;18.63;;
30149;SDS011;16962;48.646;9.026;2024-03-08T11:22:13;29.33;;;18.63;;
30149;SDS011;16962;48.646;9.026;2024-03-08T11:25:15;30.10;;;19.23;;
30149;SDS011;16962;48.646;9.026;2024-03-08T11:28:24;28.85;;;17.38;;
30149;SDS011;16962;48.646;9.026;2024-03-08T11:34:15;22.73;;;14.65;;
30149;SDS011;16962;48.646;9.026;2024-03-08T11:37:13;23.42;;;14.70;;
30149;SDS011;16962;48.646;9.026;2024-03-08T11:40:06;23.52;;;15.75;;
30149;SDS011;16962;48.646;9.026;2024-03-08T11:43:03;23.92;;;16.00;;
30149;SDS011;16962;48.646;9.026;2024-03-08T11:46:07;20.88;;;15.60;;
30149;SDS011;16962;48.646;9.026;2024-03-08T11:48:55;22.90;;;15.52;;
30149;SDS011;16962;48.646;9.026;2024-03-08T11:51:44;21.63;;;15.48;;
30149;SDS011;16962;48.646;9.026;2024-03-08T11:54:31;22.13;;;15.60;;
30149;SDS011;16962;48.646;9.026;2024-03-08T11:57:22;22.35;;;15.40;;
30149;SDS011;16962;48.646;9.026;2024-03-08T12:00:19;22.25;;;15.45;;
30149;SDS011;16962;48.646;9.026;2024-03-08T12:06:00;23.63;;;14.98;;
30149;SDS011;16962;48.646;9.026;2024-03-08T12:08:50;25.73;;;16.60;;
30149;SDS011;16962;48.646;9.026;2024-03-08T12:11:38;22.02;;;15.32;;
30149;SDS011;16962;48.646;9.026;2024-03-08T12:14:27;20.90;;;14.32;;
30149;SDS011;16962;48.646;9.026;2024-03-08T12:17:15;18.85;;;14.00;;
30149;SDS011;16962;48.646;9.026;2024-03-08T12:20:14;20.40;;;14.80;;
30149;SDS011;16962;48.646;9.026;2024-03-08T12:23:16;21.25;;;15.07;;
30149;SDS011;16962;48.646;9.026;2024-03-08T12:26:24;20.58;;;14.65;;
30149;SDS011;16962;48.646;9.026;2024-03-08T12:29:24;25.17;;;15.02;;
30149;SDS011;16962;48.646;9.026;2024-03-08T12:32:14;21.65;;;15.00;;
30149;SDS011;16962;48.646;9.026;2024-03-08T12:35:02;22.77;;;15.20;;
30149;SDS011;16962;48.646;9.026;2024-03-08T12:37:54;22.77;;;15.15;;
30149;SDS011;16962;48.646;9.026;2024-03-08T12:40:46;22.15;;;14.68;;
30149;SDS011;16962;48.646;9.026;2024-03-08T12:43:34;21.38;;;14.85;;
30149;SDS011;16962;48.646;9.026;2024-03-08T12:46:22;22.17;;;13.88;;
30149;SDS011;16962;48.646;9.026;2024-03-08T12:49:13;19.55;;;14.50;;
30149;SDS011;16962;48.646;9.026;2024-03-08T12:52:08;23.42;;;15.57;;
30149;SDS011;16962;48.646;9.026;2024-03-08T12:54:57;21.02;;;15.15;;
30149;SDS011;16962;48.646;9.026;2024-03-08T12:57:49;21.02;;;15.57;;
30149;SDS011;16962;48.646;9.026;2024-03-08T13:00:41;25.10;;;16.80;;
30149;SDS011;16962;48.646;9.026;2024-03-08T13:03:30;22.92;;;14.73;;
30149;SDS011;16962;48.646;9.026;2024-03-08T13:06:20;21.67;;;15.05;;
30149;SDS011;16962;48.646;9.026;2024-03-08T13:09:12;18.13;;;13.45;;
30149;SDS011;16962;48.646;9.026;2024-03-08T13:11:59;16.88;;;13.85;;
30149;SDS011;16962;48.646;9.026;2024-03-08T13:14:48;22.20;;;13.90;;
30149;SDS011;16962;48.646;9.026;2024-03-08T13:17:37;22.52;;;13.63;;
30149;SDS011;16962;48.646;9.026;2024-03-08T13:20:27;19.05;;;13.88;;
30149;SDS011;16962;48.646;9.026;2024-03-08T13:23:26;19.27;;;14.15;;
30149;SDS011;16962;48.646;9.026;2024-03-08T13:26:21;19.55;;;14.25;;
30149;SDS011;16962;48.646;9.026;2024-03-08T13:29:12;22.15;;;14.77;;
30149;SDS011;16962;48.646;9.026;2024-03-08T13:32:01;18.38;;;14.70;;
30149;SDS011;16962;48.646;9.026;2024-03-08T13:34:50;21.95;;;16.13;;
30149;SDS011;16962;48.646;9.026;2024-03-08T13:37:41;19.83;;;14.63;;
30149;SDS011;16962;48.646;9.026;2024-03-08T13:40:30;20.92;;;15.05;;
30149;SDS011;16962;48.646;9.026;2024-03-08T13:43:18;24.13;;;17.30;;
30149;SDS011;16962;48.646;9.026;2024-03-08T13:46:06;28.98;;;16.38;;
30149;SDS011;16962;48.646;9.026;2024-03-08T13:48:54;23.25;;;14.60;;
30149;SDS011;16962;48.646;9.026;2024-03-08T13:51:41;20.63;;;14.65;;
30149;SDS011;16962;48.646;9.026;2024-03-08T13:54:30;21.60;;;15.93;;
30149;SDS011;16962;48.646;9.026;2024-03-08T13:57:18;21.67;;;15.80;;
30149;SDS011;16962;48.646;9.026;2024-03-08T14:00:05;21.58;;;15.60;;
30149;SDS011;16962;48.646;9.026;2024-03-08T14:02:54;22.33;;;15.65;;
30149;SDS011;16962;48.646;9.026;2024-03-08T14:05:41;24.25;;;16.17;;
30149;SDS011;16962;48.646;9.026;2024-03-08T14:08:29;24.20;;;16.65;;
30149;SDS011;16962;48.646;9.026;2024-03-08T14:11:20;23.08;;;16.15;;
30149;SDS011;16962;48.646;9.026;2024-03-08T14:14:07;29.00;;;17.20;;
30149;SDS011;16962;48.646;9.026;2024-03-08T14:16:55;25.60;;;16.42;;
30149;SDS011;16962;48.646;9.026;2024-03-08T14:19:45;24.55;;;16.75;;
30149;SDS011;16962;48.646;9.026;2024-03-08T14:22:33;27.95;;;16.55;;
30149;SDS011;16962;48.646;9.026;2024-03-08T14:25:20;35.95;;;16.50;;
30149;SDS011;16962;48.646;9.026;2024-03-08T14:28:15;23.08;;;15.95;;
30149;SDS011;16962;48.646;9.026;2024-03-08T14:31:06;23.95;;;16.40;;
30149;SDS011;16962;48.646;9.026;2024-03-08T14:33:58;25.02;;;16.63;;
30149;SDS011;16962;48.646;9.026;2024-03-08T14:36:47;27.00;;;17.08;;
30149;SDS011;16962;48.646;9.026;2024-03-08T14:39:35;24.73;;;16.60;;
30149;SDS011;16962;48.646;9.026;2024-03-08T14:42:23;26.45;;;16.85;;
30149;SDS011;16962;48.646;9.026;2024-03-08T14:45:13;23.70;;;15.55;;
30149;SDS011;16962;48.646;9.026;2024-03-08T14:48:01;24.27;;;16.58;;
30149;SDS011;16962;48.646;9.026;2024-03-08T14:50:52;25.52;;;16.35;;
30149;SDS011;16962;48.646;9.026;2024-03-08T14:53:42;26.05;;;17.40;;
30149;SDS011;16962;48.646;9.026;2024-03-08T14:56:34;25.55;;;17.17;;
30149;SDS011;16962;48.646;9.026;2024-03-08T14:59:22;25.10;;;17.10;;
30149;SDS011;16962;48.646;9.026;2024-03-08T15:02:09;25.98;;;16.77;;
30149;SDS011;16962;48.646;9.026;2024-03-08T15:04:57;25.27;;;17.38;;
30149;SDS011;16962;48.646;9.026;2024-03-08T15:07:48;28.50;;;16.67;;
30149;SDS011;16962;48.646;9.026;2024-03-08T15:10:36;31.10;;;18.95;;
30149;SDS011;16962;48.646;9.026;2024-03-08T15:13:27;25.05;;;16.48;;
30149;SDS011;16962;48.646;9.026;2024-03-08T15:16:21;26.25;;;16.73;;
30149;SDS011;16962;48.646;9.026;2024-03-08T15:19:11;24.85;;;16.52;;
30149;SDS011;16962;48.646;9.026;2024-03-08T15:21:59;32.33;;;18.38;;
30149;SDS011;16962;48.646;9.026;2024-03-08T15:24:46;27.73;;;16.20;;
30149;SDS011;16962;48.646;9.026;2024-03-08T15:27:33;23.58;;;16.40;;
30149;SDS011;16962;48.646;9.026;2024-03-08T15:30:25;30.43;;;17.03;;
30149;SDS011;16962;48.646;9.026;2024-03-08T15:33:15;27.90;;;16.77;;
30149;SDS011;16962;48.646;9.026;2024-03-08T15:36:11;27.67;;;16.25;;
30149;SDS011;16962;48.646;9.026;2024-03-08T15:39:01;28.83;;;17.85;;
30149;SDS011;16962;48.646;9.026;2024-03-08T15:41:49;29.98;;;17.35;;
30149;SDS011;16962;48.646;9.026;2024-03-08T15:44:37;26.88;;;18.10;;
30149;SDS011;16962;48.646;9.026;2024-03-08T15:47:29;34.50;;;19.75;;
30149;SDS011;16962;48.646;9.026;2024-03-08T15:50:18;30.15;;;18.20;;
30149;SDS011;16962;48.646;9.026;2024-03-08T15:53:08;31.80;;;18.42;;
30149;SDS011;16962;48.646;9.026;2024-03-08T15:55:59;31.98;;;19.40;;
30149;SDS011;16962;48.646;9.026;2024-03-08T15:58:47;31.25;;;18.50;;
30149;SDS011;16962;48.646;9.026;2024-03-08T16:01:36;33.03;;;19.88;;
30149;SDS011;16962;48.646;9.026;2024-03-08T16:04:28;29.92;;;18.85;;
30149;SDS011;16962;48.646;9.026;2024-03-08T16:07:17;31.55;;;18.48;;
30149;SDS011;16962;48.646;9.026;2024-03-08T16:10:06;32.40;;;19.45;;
30149;SDS011;16962;48.646;9.026;2024-03-08T16:12:56;31.80;;;19.17;;
30149;SDS011;16962;48.646;9.026;2024-03-08T16:15:44;31.85;;;19.77;;
30149;SDS011;16962;48.646;9.026;2024-03-08T16:18:36;31.55;;;19.25;;
30149;SDS011;16962;48.646;9.026;2024-03-08T16:21:26;35.47;;;20.30;;
30149;SDS011;16962;48.646;9.026;2024-03-08T16:24:14;40.85;;;21.42;;
30149;SDS011;16962;48.646;9.026;2024-03-08T16:27:02;36.42;;;22.50;;
30149;SDS011;16962;48.646;9.026;2024-03-08T16:29:51;34.67;;;20.58;;
30149;SDS011;16962;48.646;9.026;2024-03-08T16:32:40;34.25;;;20.23;;
30149;SDS011;16962;48.646;9.026;2024-03-08T16:35:28;39.78;;;22.30;;
30149;SDS011;16962;48.646;9.026;2024-03-08T16:38:17;37.15;;;22.08;;
30149;SDS011;16962;48.646;9.026;2024-03-08T16:41:07;39.22;;;23.42;;